Time;durP1;ratioP1;P1;durP2;ratioP2;P2;SDS_P1;SDS_P2;PMS_P1;PMS_P2;Temp;Humidity;BMP_temperature;BMP_pressure;BME280_temperature;BME280_humidity;BME280_pressure;Samples;Min_cycle;Max_cycle;Signal;HPM_P1;HPM_P2
2022/10/03 00:01:35;;;;;;;;;;;14.70;79.10;;;14.11;100.00;62537.16;4149191;34;19911;-84
2022/10/03 00:04:16;;;;;;;;;;;14.70;79.00;;;-151.14;100.00;62537.16;4182779;34;19904;-85
2022/10/03 00:06:52;;;;;;;;;;;14.70;79.20;;;-151.14;100.00;62537.16;4162491;34;20231;-85
2022/10/03 00:09:34;;;;;;;;;;;14.70;79.20;;;-151.14;100.00;62537.16;4164242;34;20115;-85
2022/10/03 00:12:16;;;;;;;;;;;14.70;79.10;;;-151.14;100.00;62537.16;4164886;34;19904;-84
2022/10/03 00:14:53;;;;;;;;;;;14.70;79.30;;;-151.14;100.00;62537.16;4165863;34;19911;-85
2022/10/03 00:17:25;;;;;;;;;;;14.70;79.10;;;-151.14;100.00;62537.16;4187520;34;19904;-85
2022/10/03 00:20:01;;;;;;;;;;;14.70;79.10;;;18.08;100.00;62537.16;4165713;34;20115;-85
2022/10/03 00:22:37;;;;;;;;;;;14.70;79.10;;;-151.14;100.00;62537.16;4182901;34;19904;-84
2022/10/03 00:25:21;;;;;;;;;;;14.70;79.10;;;-151.14;100.00;62537.16;4164790;34;19904;-85
2022/10/03 00:27:55;;;;;;;;;;;14.70;79.00;;;14.11;100.00;62537.16;4164043;34;19915;-85
2022/10/03 00:30:24;;;;;;;;;;;14.70;79.20;;;-151.14;100.00;62537.16;4163991;34;19912;-85
2022/10/03 00:33:14;;;;;;;;;;;14.70;79.10;;;-151.14;100.00;62537.16;4164510;34;20115;-84
2022/10/03 00:35:55;;;;;;;;;;;14.70;79.00;;;-151.14;100.00;62537.16;4187392;34;19904;-85
2022/10/03 00:38:57;;;;;;;;;;;14.70;78.90;;;-151.14;100.00;62537.16;4186843;34;19904;-85
2022/10/03 00:42:40;;;;;;;;;;;14.70;79.00;;;14.11;100.00;62537.16;4131843;34;19911;-84
2022/10/03 00:45:39;;;;;;;;;;;14.70;79.00;;;187.61;100.00;62537.16;4164569;34;20335;-85
2022/10/03 00:49:02;;;;;;;;;;;14.70;78.90;;;-151.14;100.00;62537.16;4186646;34;19904;-84
2022/10/03 00:51:44;;;;;;;;;;;14.70;78.90;;;-151.14;100.00;62537.16;4187211;34;19904;-85
2022/10/03 00:54:29;;;;;;;;;;;14.70;78.80;;;-151.14;100.00;62537.16;4187203;34;19904;-85
2022/10/03 00:57:08;;;;;;;;;;;14.70;78.80;;;-151.14;100.00;62537.16;4164390;34;19904;-85
2022/10/03 00:59:53;;;;;;;;;;;14.70;78.70;;;-151.14;100.00;62537.16;4186649;34;19911;-85
2022/10/03 01:02:37;;;;;;;;;;;14.70;78.80;;;-151.14;100.00;62537.16;4165276;34;19904;-84
2022/10/03 01:05:14;;;;;;;;;;;14.70;78.80;;;-151.14;100.00;62537.16;4187170;34;20107;-84
2022/10/03 01:08:16;;;;;;;;;;;14.70;78.80;;;-151.14;100.00;62537.16;4164733;34;19904;-85
2022/10/03 01:10:50;;;;;;;;;;;14.70;78.70;;;-151.14;100.00;62537.16;4164178;34;19911;-85
2022/10/03 01:13:32;;;;;;;;;;;14.70;78.60;;;-151.14;100.00;62537.16;4164357;34;19911;-85
2022/10/03 01:16:09;;;;;;;;;;;14.70;78.70;;;-151.14;100.00;62537.16;4186929;34;20126;-85
2022/10/03 01:18:45;;;;;;;;;;;14.70;78.80;;;;;;4163689;34;19904;-85
2022/10/03 01:21:19;;;;;;;;;;;14.70;78.80;;;-151.14;100.00;62537.16;4186972;34;19904;-85
2022/10/03 01:24:33;;;;;;;;;;;14.70;78.70;;;-151.14;100.00;62537.16;4164038;34;20327;-85
2022/10/03 01:27:02;;;;;;;;;;;14.70;78.60;;;187.61;100.00;62537.16;4176486;34;19904;-84
2022/10/03 01:32:38;;;;;;;;;;;14.70;78.80;;;-151.14;100.00;62537.16;4186768;34;20123;-84
2022/10/03 01:35:15;;;;;;;;;;;14.70;78.50;;;-151.14;100.00;62537.16;4186867;34;19927;-85
2022/10/03 01:37:51;;;;;;;;;;;14.70;78.60;;;-151.14;100.00;62537.16;4140934;34;19912;-85
2022/10/03 01:40:26;;;;;;;;;;;14.70;78.50;;;-151.14;100.00;62537.16;4163975;34;19911;-85
2022/10/03 01:43:14;;;;;;;;;;;14.60;78.40;;;-151.14;100.00;62537.16;4159341;34;19911;-84
2022/10/03 01:45:54;;;;;;;;;;;14.60;78.40;;;-151.14;100.00;62537.16;4125565;34;23694;-84
2022/10/03 01:48:29;;;;;;;;;;;14.60;78.50;;;15.43;100.00;62537.16;4148656;34;19922;-85
2022/10/03 01:51:01;;;;;;;;;;;14.60;78.30;;;187.61;100.00;62537.16;4148110;34;20005;-85
2022/10/03 01:53:39;;;;;;;;;;;14.60;78.40;;;-151.14;100.00;62537.16;4170834;34;19912;-84
2022/10/03 01:56:12;;;;;;;;;;;14.60;78.40;;;-151.14;100.00;62537.16;4148299;34;19911;-85
2022/10/03 01:58:49;;;;;;;;;;;14.60;78.50;;;-151.14;100.00;62537.16;4148485;34;20096;-85
2022/10/03 02:01:26;;;;;;;;;;;14.60;78.40;;;-151.14;100.00;62537.16;4148257;34;20013;-84
2022/10/03 02:04:01;;;;;;;;;;;14.60;78.40;;;-151.14;100.00;62537.16;4153565;34;19904;-84
2022/10/03 02:06:42;;;;;;;;;;;14.60;78.50;;;187.61;100.00;62537.16;4175302;34;20247;-85
2022/10/03 02:09:18;;;;;;;;;;;14.60;78.40;;;-151.14;100.00;62537.16;4174646;34;20009;-85
2022/10/03 02:12:03;;;;;;;;;;;14.60;78.50;;;-151.14;100.00;62537.16;4175341;34;19904;-85
2022/10/03 02:14:39;;;;;;;;;;;14.60;78.30;;;-151.14;100.00;62537.16;4175176;34;19904;-85
2022/10/03 02:17:15;;;;;;;;;;;14.60;78.40;;;187.61;100.00;62537.16;4175156;34;19980;-84
2022/10/03 02:19:47;;;;;;;;;;;14.60;78.30;;;-151.14;100.00;62537.16;4174590;34;19981;-84
2022/10/03 02:22:16;;;;;;;;;;;14.60;78.40;;;14.11;100.00;62537.16;4175182;34;20227;-84
2022/10/03 02:24:50;;;;;;;;;;;14.60;78.30;;;13.70;100.00;62537.16;4198050;34;20005;-85
2022/10/03 02:28:07;;;;;;;;;;;14.60;78.30;;;-151.14;100.00;62537.16;4175030;34;19955;-85
2022/10/03 02:30:37;;;;;;;;;;;14.60;78.50;;;-151.14;100.00;62537.16;4155898;34;19904;-85
2022/10/03 02:33:59;;;;;;;;;;;14.60;78.50;;;-151.14;100.00;62537.16;4148899;34;19904;-84
2022/10/03 02:36:48;;;;;;;;;;;14.60;78.50;;;-151.14;100.00;62537.16;4170636;34;20219;-84
2022/10/03 02:39:19;;;;;;;;;;;14.60;78.30;;;-151.14;100.00;62537.16;4152058;28;19904;31
2022/10/03 02:42:28;;;;;;;;;;;14.60;78.40;;;-151.14;100.00;62537.16;4252633;33;19909;-81
2022/10/03 02:45:54;;;;;;;;;;;14.60;78.40;;;-151.14;100.00;62537.16;4230310;33;19909;-81
2022/10/03 02:48:59;;;;;;;;;;;14.60;78.40;;;187.61;100.00;62537.16;4166188;33;19910;-81
2022/10/03 02:52:04;;;;;;;;;;;14.60;78.50;;;-151.14;100.00;62537.16;4229589;33;19983;-81
2022/10/03 02:54:53;;;;;;;;;;;14.60;78.30;;;-151.14;100.00;62537.16;4234067;33;20113;-81
2022/10/03 02:58:02;;;;;;;;;;;14.60;78.50;;;-151.14;100.00;62537.16;4248670;33;19903;-81
2022/10/03 03:00:48;;;;;;;;;;;14.60;78.50;;;18.08;100.00;62537.16;4248676;33;19903;-81
2022/10/03 03:03:40;;;;;;;;;;;14.60;78.60;;;13.71;100.00;62537.16;4249663;33;19902;-81
2022/10/03 03:06:52;;;;;;;;;;;14.60;78.40;;;-151.14;100.00;62537.16;4248505;33;19903;-81
2022/10/03 03:10:04;;;;;;;;;;;14.60;78.40;;;-151.14;100.00;62537.16;4248777;33;19910;-82
2022/10/03 03:13:24;;;;;;;;;;;14.60;78.40;;;-151.14;100.00;62537.16;4189162;34;20101;-81
2022/10/03 03:16:54;;;;;;;;;;;14.60;78.50;;;-151.14;100.00;62537.16;4197651;34;19903;-81
2022/10/03 03:19:42;;;;;;;;;;;14.60;78.50;;;-151.14;100.00;62537.16;4115083;34;19904;-81
2022/10/03 03:22:24;;;;;;;;;;;14.60;78.40;;;-151.14;100.00;62537.16;4243809;33;19904;-81
2022/10/03 03:25:14;;;;;;;;;;;14.60;78.60;;;-151.14;100.00;62537.16;4197223;34;19926;-81
2022/10/03 03:27:48;;;;;;;;;;;14.60;78.50;;;-151.14;100.00;62537.16;4219687;34;20125;-81
2022/10/03 03:30:19;;;;;;;;;;;14.50;78.40;;;-151.14;100.00;62537.16;4220238;34;19910;-81
2022/10/03 03:33:06;;;;;;;;;;;14.60;78.40;;;-151.14;100.00;62537.16;4220281;34;19910;-81
2022/10/03 03:35:46;;;;;;;;;;;14.60;78.50;;;-151.14;100.00;62537.16;4220269;34;19903;-81
2022/10/03 03:38:29;;;;;;;;;;;14.60;78.60;;;-151.14;100.00;62537.16;4196846;34;19903;-81
2022/10/03 03:41:12;;;;;;;;;;;14.60;78.40;;;-151.14;100.00;62537.16;4207977;33;20339;-82
2022/10/03 03:43:54;;;;;;;;;;;14.60;78.40;;;-151.14;100.00;62537.16;4224894;33;19910;-82
2022/10/03 03:46:33;;;;;;;;;;;14.60;78.40;;;-151.14;100.00;62537.16;4248277;33;19910;-81
2022/10/03 03:49:15;;;;;;;;;;;14.60;78.70;;;-151.14;100.00;62537.16;4271413;33;20345;-81
2022/10/03 03:51:49;;;;;;;;;;;14.60;78.60;;;-151.14;100.00;62537.16;4248244;33;19910;-81
2022/10/03 03:54:59;;;;;;;;;;;14.50;78.70;;;-151.14;100.00;62537.16;4224608;33;19903;-81
2022/10/03 03:57:51;;;;;;;;;;;14.60;78.60;;;-151.14;100.00;62537.16;4224639;33;19903;-81
2022/10/03 04:00:21;;;;;;;;;;;14.60;78.50;;;-151.14;100.00;62537.16;4224508;33;19903;-82
2022/10/03 04:03:09;;;;;;;;;;;14.50;78.60;;;-151.14;100.00;62537.16;4220189;34;19911;-81
2022/10/03 04:05:53;;;;;;;;;;;14.60;78.50;;;-151.14;100.00;62537.16;4198547;33;19903;-81
2022/10/03 04:08:36;;;;;;;;;;;14.50;78.90;;;-151.14;100.00;62537.16;4224090;33;19903;-81
2022/10/03 04:11:17;;;;;;;;;;;14.50;78.70;;;-151.14;100.00;62537.16;4224642;33;19903;-81
2022/10/03 04:13:59;;;;;;;;;;;14.50;78.70;;;-151.14;100.00;62537.16;4224534;33;19903;-81
2022/10/03 04:19:32;;;;;;;;;;;14.50;78.60;;;13.60;100.00;62537.16;4223820;33;20201;-81
2022/10/03 04:22:21;;;;;;;;;;;14.50;78.60;;;-151.14;100.00;62537.16;4248012;33;20094;-81
2022/10/03 04:25:19;;;;;;;;;;;14.50;78.60;;;-151.14;100.00;62537.16;4247692;33;19903;-81
2022/10/03 04:28:17;;;;;;;;;;;14.50;78.60;;;-151.14;100.00;62537.16;4224077;33;20198;-82
2022/10/03 04:30:54;;;;;;;;;;;14.50;78.70;;;-151.14;100.00;62537.16;4212595;33;19903;-81
2022/10/03 04:33:35;;;;;;;;;;;14.50;78.60;;;-151.14;100.00;62537.16;4224363;33;20363;-81
2022/10/03 04:36:53;;;;;;;;;;;14.50;78.70;;;-151.14;100.00;62537.16;4247715;33;19902;-81
2022/10/03 04:39:29;;;;;;;;;;;14.50;78.70;;;-151.14;100.00;62537.16;4247196;33;19903;-81
2022/10/03 04:42:02;;;;;;;;;;;14.50;78.50;;;-151.14;100.00;62537.16;4224031;33;19910;-81
2022/10/03 04:44:47;;;;;;;;;;;14.50;78.70;;;-151.14;100.00;62537.16;4224280;33;19902;-81
2022/10/03 04:47:20;;;;;;;;;;;14.50;78.60;;;-151.14;100.00;62537.16;4248580;33;19910;-81
2022/10/03 04:49:52;;;;;;;;;;;14.50;78.90;;;-151.14;100.00;62537.16;4239796;33;20010;-81
2022/10/03 04:52:25;;;;;;;;;;;14.50;78.60;;;-151.14;100.00;62537.16;4244424;33;20114;-81
2022/10/03 04:54:57;;;;;;;;;;;14.50;78.60;;;-151.14;100.00;62537.16;4248346;33;20225;-81
2022/10/03 04:57:31;;;;;;;;;;;14.50;78.60;;;-151.14;100.00;62537.16;4247247;33;19918;-81
2022/10/03 05:00:13;;;;;;;;;;;14.50;78.60;;;13.59;100.00;62537.16;4247236;33;19902;-81
2022/10/03 05:02:46;;;;;;;;;;;14.50;78.70;;;-151.14;100.00;62537.16;4223950;33;19910;-81
2022/10/03 05:05:26;;;;;;;;;;;14.50;78.80;;;-151.14;100.00;62537.16;4248262;33;20110;-81
2022/10/03 05:08:05;;;;;;;;;;;14.50;78.60;;;-151.14;100.00;62537.16;4223592;33;19902;-82
2022/10/03 05:11:05;;;;;;;;;;;14.50;78.70;;;-151.14;100.00;62537.16;4223520;33;20121;-81
2022/10/03 05:13:46;;;;;;;;;;;14.50;78.60;;;-151.14;100.00;62537.16;4223711;33;19910;-81
2022/10/03 05:16:30;;;;;;;;;;;14.50;78.50;;;-151.14;100.00;62537.16;4247029;33;19902;-81
2022/10/03 05:19:20;;;;;;;;;;;14.50;78.60;;;-151.14;100.00;62537.16;4223484;33;19902;-81
2022/10/03 05:21:51;;;;;;;;;;;14.50;78.70;;;-151.14;100.00;62537.16;4236935;33;20125;-81
2022/10/03 05:24:24;;;;;;;;;;;14.50;78.60;;;-151.14;100.00;62537.16;4231272;33;20002;-82
2022/10/03 05:26:57;;;;;;;;;;;14.50;78.80;;;-151.14;100.00;62537.16;4207855;33;19903;-81
2022/10/03 05:29:32;;;;;;;;;;;14.50;78.60;;;-151.14;100.00;62537.16;4230713;33;19902;-81
2022/10/03 05:32:17;;;;;;;;;;;14.50;78.50;;;-151.14;100.00;62537.16;4230955;33;20125;-81
2022/10/03 05:35:13;;;;;;;;;;;14.50;78.40;;;-151.14;100.00;62537.16;4207787;33;20221;-81
2022/10/03 05:38:09;;;;;;;;;;;14.50;78.40;;;-151.14;100.00;62537.16;4231583;33;19911;-81
2022/10/03 05:40:39;;;;;;;;;;;14.50;78.40;;;-151.14;100.00;62537.16;4207279;33;20006;-81
2022/10/03 05:43:21;;;;;;;;;;;14.50;78.40;;;-151.14;100.00;62537.16;4232122;33;19951;-81
2022/10/03 05:45:54;;;;;;;;;;;14.50;78.40;;;-151.14;100.00;62537.16;4207765;33;19902;-81
2022/10/03 05:48:33;;;;;;;;;;;14.50;78.50;;;-151.14;100.00;62537.16;4231563;33;19910;-81
2022/10/03 05:51:40;;;;;;;;;;;14.50;78.40;;;-151.14;100.00;62537.16;4207629;33;19999;-81
2022/10/03 05:54:44;;;;;;;;;;;14.50;78.30;;;-151.14;100.00;62537.16;4230949;33;20260;-81
2022/10/03 05:57:47;;;;;;;;;;;14.50;78.30;;;-151.14;100.00;62537.16;4207232;33;20007;-81
2022/10/03 06:00:20;;;;;;;;;;;14.50;78.30;;;-151.14;100.00;62537.16;4207453;33;19902;-81
2022/10/03 06:03:39;;;;;;;;;;;14.50;78.30;;;-151.14;100.00;62537.16;4207403;33;19910;-81
2022/10/03 06:06:19;;;;;;;;;;;14.50;78.40;;;-151.14;100.00;62537.16;4204722;33;19903;-81
2022/10/03 06:09:45;;;;;;;;;;;14.50;78.20;;;-151.14;100.00;62537.16;4207088;33;19902;-81
2022/10/03 06:12:14;;;;;;;;;;;14.50;78.20;;;-151.14;100.00;62537.16;4230822;33;19910;-81
2022/10/03 06:15:17;;;;;;;;;;;14.50;78.30;;;-151.14;100.00;62537.16;4207423;33;19902;-82
2022/10/03 06:18:12;;;;;;;;;;;14.50;78.40;;;-151.14;100.00;62537.16;4206901;33;19918;-82
2022/10/03 06:21:08;;;;;;;;;;;14.50;78.50;;;18.10;100.00;62537.16;4230476;33;19918;-82
2022/10/03 06:24:13;;;;;;;;;;;14.50;78.40;;;-151.14;100.00;62537.16;4230703;33;19928;-82
2022/10/03 06:28:06;;;;;;;;;;;14.50;78.50;;;-151.14;100.00;62537.16;4205432;33;19988;-82
2022/10/03 06:30:53;;;;;;;;;;;14.50;78.40;;;-151.14;100.00;62537.16;4153698;34;19916;-82
2022/10/03 06:34:18;;;;;;;;;;;14.50;78.30;;;-151.14;100.00;62537.16;4176958;34;20012;-82
2022/10/03 06:37:16;;;;;;;;;;;14.50;78.20;;;-151.14;100.00;62537.16;4164640;34;19903;-82
2022/10/03 06:40:38;;;;;;;;;;;14.50;78.30;;;18.08;100.00;62537.16;4165060;34;19903;-82
2022/10/03 06:43:42;;;;;;;;;;;14.50;78.30;;;-151.14;100.00;62537.16;4178669;34;20238;-82
2022/10/03 06:46:59;;;;;;;;;;;14.50;78.30;;;-151.14;100.00;62537.16;4181897;34;20012;-82
2022/10/03 06:50:04;;;;;;;;;;;14.50;78.50;;;-151.14;100.00;62537.16;4189065;34;20122;-82
2022/10/03 06:52:44;;;;;;;;;;;14.50;78.40;;;-151.14;100.00;62537.16;4179039;34;20019;-82
2022/10/03 06:55:49;;;;;;;;;;;14.50;78.50;;;-151.14;100.00;62537.16;4181723;34;20126;-82
2022/10/03 06:58:50;;;;;;;;;;;14.50;78.40;;;-151.14;100.00;62537.16;4181274;34;20012;-82
2022/10/03 07:01:47;;;;;;;;;;;14.50;79.10;;;-151.14;100.00;62537.16;4181304;34;20003;-82
2022/10/03 07:04:53;;;;;;;;;;;14.50;78.40;;;-151.14;100.00;62537.16;4183942;33;20003;-82
2022/10/03 07:07:49;;;;;;;;;;;14.50;79.20;;;;;;4204652;34;19904;-82
2022/10/03 07:10:30;;;;;;;;;;;14.50;78.30;;;-151.14;100.00;62537.16;4228182;33;19903;-82
2022/10/03 07:13:19;;;;;;;;;;;14.50;78.30;;;-151.14;100.00;62537.16;4181469;34;19926;-82
2022/10/03 07:16:40;;;;;;;;;;;14.50;78.50;;;-151.14;100.00;62537.16;4205626;34;19903;-82
2022/10/03 07:19:32;;;;;;;;;;;14.50;78.40;;;187.61;100.00;62537.16;4227602;33;20007;-81
2022/10/03 07:22:48;;;;;;;;;;;14.50;78.40;;;-151.14;100.00;62537.16;4145931;34;19918;-82
2022/10/03 07:25:42;;;;;;;;;;;14.50;78.40;;;187.61;100.00;62537.16;4216292;33;19910;-82
2022/10/03 07:28:37;;;;;;;;;;;14.50;78.30;;;-151.14;100.00;62537.16;4208600;33;20213;-82
2022/10/03 07:31:12;;;;;;;;;;;14.50;78.30;;;187.61;100.00;62537.16;4255846;33;20137;-83
2022/10/03 07:34:24;;;;;;;;;;;14.50;78.30;;;187.61;100.00;62537.16;4208928;33;20007;-82
2022/10/03 07:40:21;;;;;;;;;;;14.50;78.30;;;-151.14;100.00;62537.16;4255566;33;20217;-83
2022/10/03 07:43:46;;;;;;;;;;;14.50;78.20;;;-151.14;100.00;62537.16;4232321;33;20012;-82
2022/10/03 07:46:55;;;;;;;;;;;14.40;78.30;;;-151.14;100.00;62537.16;4208984;33;19902;-82
2022/10/03 07:50:02;;;;;;;;;;;14.50;78.60;;;-151.14;100.00;62537.16;4211699;33;19902;-82
2022/10/03 07:53:00;;;;;;;;;;;14.50;78.40;;;-151.14;100.00;62537.16;4228305;33;20219;-82
2022/10/03 07:55:39;;;;;;;;;;;14.50;78.50;;;13.55;100.00;62537.16;4197297;33;19945;-82
2022/10/03 07:58:28;;;;;;;;;;;14.50;78.40;;;-151.14;100.00;62537.16;4208171;33;19987;-82
2022/10/03 08:01:24;;;;;;;;;;;14.40;78.30;;;-151.14;100.00;62537.16;4232751;33;19910;-82
2022/10/03 08:04:37;;;;;;;;;;;14.50;78.40;;;187.61;100.00;62537.16;4231910;33;19910;-82
2022/10/03 08:07:22;;;;;;;;;;;14.50;78.30;;;187.61;100.00;62537.16;4204969;34;20044;-82
2022/10/03 08:10:08;;;;;;;;;;;14.50;78.30;;;-151.14;100.00;62537.16;4203690;34;19903;-82
2022/10/03 08:13:15;;;;;;;;;;;14.50;78.30;;;-151.14;100.00;62537.16;4204842;34;19903;-82
2022/10/03 08:16:00;;;;;;;;;;;14.50;78.30;;;-151.14;100.00;62537.16;4200195;34;20011;-82
2022/10/03 08:18:50;;;;;;;;;;;14.50;78.30;;;-151.14;100.00;62537.16;4180321;34;19910;-81
2022/10/03 08:21:22;;;;;;;;;;;14.50;78.40;;;-151.14;100.00;62537.16;4180697;34;19995;-81
2022/10/03 08:24:35;;;;;;;;;;;14.50;78.40;;;13.59;100.00;62537.16;4180911;34;19910;-81
2022/10/03 08:27:30;;;;;;;;;;;14.50;78.50;;;-151.14;100.00;62537.16;4180848;34;19903;-82
2022/10/03 08:30:24;;;;;;;;;;;14.50;78.80;;;-151.14;100.00;62537.16;4205477;33;20103;-82
2022/10/03 08:33:33;;;;;;;;;;;14.60;78.80;;;-151.14;100.00;62537.16;4208160;33;19999;-82
2022/10/03 08:36:38;;;;;;;;;;;14.60;78.80;;;-151.14;100.00;62537.16;4231299;33;19909;-82
2022/10/03 08:39:18;;;;;;;;;;;14.60;78.80;;;-151.14;100.00;62537.16;4207779;33;20117;-82
2022/10/03 08:42:26;;;;;;;;;;;14.60;78.60;;;-151.14;100.00;62537.16;4208670;33;19903;-82
2022/10/03 08:45:24;;;;;;;;;;;14.60;78.70;;;-151.14;100.00;62537.16;4231674;33;20013;-82
2022/10/03 08:48:35;;;;;;;;;;;14.60;78.80;;;-151.14;100.00;62537.16;4207842;33;19903;-82
2022/10/03 08:51:40;;;;;;;;;;;14.60;78.80;;;187.61;100.00;62537.16;4231171;33;19995;-82
2022/10/03 08:54:23;;;;;;;;;;;14.60;78.90;;;-151.14;100.00;62537.16;4226970;33;20005;-82
2022/10/03 08:57:13;;;;;;;;;;;14.60;78.80;;;-151.14;100.00;62537.16;4232420;33;19910;-82
2022/10/03 09:00:14;;;;;;;;;;;14.60;78.70;;;-151.14;100.00;62537.16;4231885;33;19910;-82
2022/10/03 09:03:27;;;;;;;;;;;14.60;78.70;;;18.08;100.00;62537.16;4208163;33;19909;-82
2022/10/03 09:06:46;;;;;;;;;;;14.70;79.70;;;14.11;100.00;62537.16;4208194;33;19917;-82
2022/10/03 09:10:16;;;;;;;;;;;14.70;78.80;;;14.11;100.00;62537.16;4231057;33;19910;-82
2022/10/03 09:13:20;;;;;;;;;;;14.70;78.70;;;14.11;100.00;62537.16;4247941;33;20007;-83
2022/10/03 09:16:38;;;;;;;;;;;14.80;78.80;;;-151.14;100.00;62537.16;4222887;33;19903;-82
2022/10/03 09:19:53;;;;;;;;;;;14.80;78.60;;;-151.14;100.00;62537.16;4202716;33;19903;-82
2022/10/03 09:23:08;;;;;;;;;;;14.80;78.60;;;-151.14;100.00;62537.16;4218221;33;20003;-83
2022/10/03 09:25:49;;;;;;;;;;;14.80;78.60;;;-151.14;100.00;62537.16;4170699;33;19991;-82
2022/10/03 09:28:39;;;;;;;;;;;14.80;78.50;;;-151.14;100.00;62537.16;4203698;34;19988;-82
2022/10/03 09:31:21;;;;;;;;;;;14.80;78.50;;;-151.14;100.00;62537.16;4180371;34;20326;-82
2022/10/03 09:34:16;;;;;;;;;;;14.80;78.40;;;;;;4180192;34;19910;-82
2022/10/03 09:37:47;;;;;;;;;;;14.80;78.60;;;14.11;100.00;62537.16;4204093;33;19918;-82
2022/10/03 09:41:10;;;;;;;;;;;14.80;78.60;;;-151.14;100.00;62537.16;4160090;34;19946;-82
2022/10/03 09:44:26;;;;;;;;;;;14.80;78.70;;;14.11;100.00;62537.16;4197925;33;20117;-82
2022/10/03 09:47:26;;;;;;;;;;;14.80;78.60;;;187.61;100.00;62537.16;4232013;33;19999;-82
2022/10/03 09:50:51;;;;;;;;;;;14.80;78.60;;;-151.14;100.00;62537.16;4207521;33;19904;-82
2022/10/03 09:53:48;;;;;;;;;;;14.90;78.60;;;18.08;100.00;62537.16;4194133;33;19988;-82
2022/10/03 09:57:03;;;;;;;;;;;14.90;78.50;;;-151.14;100.00;62537.16;4230921;33;19963;-82
2022/10/03 10:00:09;;;;;;;;;;;14.90;78.50;;;187.61;100.00;62537.16;4230260;33;19902;-82
2022/10/03 10:03:26;;;;;;;;;;;14.90;78.40;;;-151.14;100.00;62537.16;4227540;33;20206;-82
2022/10/03 10:06:22;;;;;;;;;;;14.90;78.30;;;-151.14;100.00;62537.16;4233441;33;20211;-82
2022/10/03 10:09:32;;;;;;;;;;;14.90;78.40;;;-151.14;100.00;62537.16;4205547;33;20221;-83
2022/10/03 10:12:13;;;;;;;;;;;14.90;78.40;;;-151.14;100.00;62537.16;4190708;33;19903;-82
2022/10/03 10:15:00;;;;;;;;;;;14.80;78.40;;;-151.14;100.00;62537.16;4209935;33;19910;-83
2022/10/03 10:18:11;;;;;;;;;;;14.80;78.40;;;-151.14;100.00;62537.16;4232892;33;20221;-82
2022/10/03 10:21:37;;;;;;;;;;;14.80;78.50;;;-151.14;100.00;62537.16;4233190;33;19910;-83
2022/10/03 10:24:35;;;;;;;;;;;14.80;78.60;;;-151.14;100.00;62537.16;4232894;33;19903;-83
2022/10/03 10:27:53;;;;;;;;;;;14.80;78.70;;;-151.14;100.00;62537.16;4208454;33;19903;-83
2022/10/03 10:30:31;;;;;;;;;;;14.70;78.60;;;-151.14;100.00;62537.16;4234020;33;19992;-82
2022/10/03 10:34:02;;;;;;;;;;;14.80;78.70;;;-151.14;100.00;62537.16;4209711;33;19903;-83
2022/10/03 10:37:23;;;;;;;;;;;14.80;78.70;;;-151.14;100.00;62537.16;4203990;33;19903;-82
2022/10/03 10:40:57;;;;;;;;;;;14.80;78.60;;;-151.14;100.00;62537.16;4209298;33;19902;-82
2022/10/03 10:44:27;;;;;;;;;;;14.80;78.60;;;-151.14;100.00;62537.16;4177859;33;19903;-82
2022/10/03 10:47:27;;;;;;;;;;;14.80;78.60;;;-151.14;100.00;62537.16;4219162;33;19903;-83
2022/10/03 10:50:23;;;;;;;;;;;14.80;78.60;;;-151.14;100.00;62537.16;4204838;34;19903;-83
2022/10/03 10:53:47;;;;;;;;;;;14.80;78.70;;;-151.14;100.00;62537.16;4228306;33;19910;-83
2022/10/03 10:57:08;;;;;;;;;;;14.80;78.60;;;-151.14;100.00;62537.16;4204723;34;20234;-83
2022/10/03 11:00:21;;;;;;;;;;;14.80;78.60;;;-151.14;100.00;62537.16;4196933;34;20118;-83
2022/10/03 11:03:46;;;;;;;;;;;14.80;78.60;;;-151.14;100.00;62537.16;4205907;34;19904;-82
2022/10/03 11:07:04;;;;;;;;;;;14.80;78.70;;;-151.14;100.00;62537.16;4160298;34;20241;-83
2022/10/03 11:09:53;;;;;;;;;;;14.80;78.70;;;-151.14;100.00;62537.16;4204060;34;20003;-83
2022/10/03 11:13:26;;;;;;;;;;;14.80;78.70;;;18.08;100.00;62537.16;4204567;34;19903;-83
2022/10/03 11:16:59;;;;;;;;;;;14.70;78.70;;;-151.14;100.00;62537.16;4176722;34;19903;-83
2022/10/03 11:20:09;;;;;;;;;;;14.80;78.70;;;14.11;100.00;62537.16;4203911;34;19966;-82
2022/10/03 11:23:25;;;;;;;;;;;14.80;78.60;;;-151.14;100.00;62537.16;4204863;34;19903;-82
2022/10/03 11:26:21;;;;;;;;;;;14.80;78.60;;;-151.14;100.00;62537.16;4121944;34;20007;-82
2022/10/03 11:29:31;;;;;;;;;;;14.80;78.60;;;-151.14;100.00;62537.16;4204222;34;20004;-82
2022/10/03 11:33:00;;;;;;;;;;;14.80;78.60;;;-151.14;100.00;62537.16;4165307;34;19903;-83
2022/10/03 11:35:59;;;;;;;;;;;14.80;78.50;;;-151.14;100.00;62537.16;4118387;34;19903;-83
2022/10/03 11:38:29;;;;;;;;;;;14.80;78.60;;;;;;4203962;34;19910;-83
2022/10/03 11:41:01;;;;;;;;;;;14.80;78.60;;;-151.14;100.00;62537.16;4204096;33;20012;-83
2022/10/03 11:43:59;;;;;;;;;;;14.80;78.60;;;-151.14;100.00;62537.16;4227786;33;20007;-83
2022/10/03 11:46:51;;;;;;;;;;;14.80;78.60;;;-151.14;100.00;62537.16;4204092;34;20283;-83
2022/10/03 11:49:40;;;;;;;;;;;14.80;78.70;;;-151.14;100.00;62537.16;4204169;33;19910;-82
2022/10/03 11:52:18;;;;;;;;;;;14.70;78.70;;;-151.14;100.00;62537.16;4208636;33;20218;-83
2022/10/03 11:54:48;;;;;;;;;;;14.70;78.70;;;-151.14;100.00;62537.16;4208903;33;20233;-83
2022/10/03 11:57:19;;;;;;;;;;;14.70;78.80;;;-151.14;100.00;62537.16;4232928;33;20118;-82
2022/10/03 11:59:56;;;;;;;;;;;14.70;78.70;;;-151.14;100.00;62537.16;4208271;33;19910;-83
2022/10/03 12:02:58;;;;;;;;;;;14.70;78.80;;;-151.14;100.00;62537.16;4209113;33;19903;-83
2022/10/03 12:05:34;;;;;;;;;;;14.70;78.70;;;-151.14;100.00;62537.16;4205416;33;20221;-83
2022/10/03 12:11:12;;;;;;;;;;;14.70;78.60;;;-151.14;100.00;62537.16;4231946;33;19910;-82
2022/10/03 12:13:55;;;;;;;;;;;14.70;78.70;;;-151.14;100.00;62537.16;4231919;33;19918;-82
2022/10/03 12:16:26;;;;;;;;;;;14.70;78.60;;;187.61;100.00;62537.16;4231756;33;19910;-82
2022/10/03 12:19:02;;;;;;;;;;;14.70;78.70;;;-151.14;100.00;62537.16;4231553;33;19909;-82
2022/10/03 12:21:41;;;;;;;;;;;14.70;78.80;;;-151.14;100.00;62537.16;4232766;33;19968;-82
2022/10/03 12:24:24;;;;;;;;;;;14.70;78.80;;;-151.14;100.00;62537.16;4231797;33;19918;-82
2022/10/03 12:26:59;;;;;;;;;;;14.70;78.80;;;13.80;100.00;62537.16;4231789;33;19910;-82
2022/10/03 12:29:31;;;;;;;;;;;14.70;78.70;;;-151.14;100.00;62537.16;4255059;33;19910;-82
2022/10/03 12:32:13;;;;;;;;;;;14.80;78.60;;;-151.14;100.00;62537.16;4208449;33;19909;-82
2022/10/03 12:34:46;;;;;;;;;;;14.80;78.70;;;-151.14;100.00;62537.16;4231940;33;19903;-82
2022/10/03 12:37:28;;;;;;;;;;;14.80;78.70;;;-151.14;100.00;62537.16;4231697;33;20448;-82
2022/10/03 12:40:04;;;;;;;;;;;14.80;78.60;;;-151.14;100.00;62537.16;4231424;33;19903;-82
2022/10/03 12:42:36;;;;;;;;;;;14.80;78.70;;;13.81;100.00;62537.16;4208668;33;19910;-82
2022/10/03 12:45:08;;;;;;;;;;;14.80;78.60;;;-151.14;100.00;62537.16;4208456;33;20125;-82
2022/10/03 12:47:57;;;;;;;;;;;14.80;78.60;;;-151.14;100.00;62537.16;4231382;33;19910;-82
2022/10/03 12:50:38;;;;;;;;;;;14.80;78.60;;;-151.14;100.00;62537.16;4232374;33;19909;-82
2022/10/03 12:53:31;;;;;;;;;;;14.80;78.60;;;-151.14;100.00;62537.16;4231545;33;19902;-82
2022/10/03 12:56:06;;;;;;;;;;;14.80;78.70;;;15.43;100.00;62537.16;4228725;33;19910;-82
2022/10/03 12:58:51;;;;;;;;;;;14.80;78.60;;;-151.14;100.00;62537.16;4207906;33;20211;-82
2022/10/03 13:01:30;;;;;;;;;;;14.80;78.50;;;-151.14;100.00;62537.16;4208019;33;19999;-83
2022/10/03 13:04:00;;;;;;;;;;;14.80;78.60;;;-151.14;100.00;62537.16;4208265;33;19910;-83